< < Back
Terminal Aerodrome Forecast


Current Version              Previous Versions:   1  2  3  4  5  6  7  8  9  

Terminal Aerodrome Forecast

560
FTUS42 KFFC 230700 AAA
TAFATL
TAF AMD
KATL 230730Z 2308/2412 31008KT P6SM FEW012
     FM231300 33008KT P6SM SKC
     FM240700 02004KT P6SM SKC
     FM241000 06005KT P6SM SKC=

Latest METAR

210
SAUS70 KWBC 231400 RRA
MTRATL
METAR KATL 231352Z 32009KT 10SM FEW250 17/08 A2996 RMK AO2 SLP141
T01670078


USA.gov is the U.S. government's official web portal to all federal, state and local government web resources and services.